« Back
NWS Peachtree City, Ga » Text Product » AHN Terminal Aerodrome Forecast


Printer-friendly Version
Current Version              Previous Versions:   1  2  3  4  5  6  7  8  9  

Terminal Aerodrome Forecast

170
FTAK31 PAJN 131140
TAFAHN
TAF
PAHN 131140Z 1312/1412 08010G20KT P6SM VCSH OVC080
     FM131500 07006KT 3SM BR VCSH SCT015 SCT025 OVC050
     FM132100 07009KT P6SM VCSH SCT020 BKN040 OVC060
     FM140000 12008KT P6SM BKN040 OVC060
     FM140600 12010KT P6SM -RA SCT020 BKN030 OVC050
      AMD LTD TO CLD VIS AND WIND=



USA.gov is the U.S. government's official web portal to all federal, state and local government web resources and services.